Terminal Aerodrome Forecast
Issued by NWS

Home | Current Version | Previous Version | Text Only | Print | Product List | Glossary On
Versions: 1 2 3 4 5 6 7 8 9 10 11 12 13 14 15 16 17 18 19 20 21 22 23 24 25 26 27 28 29 30 31 32 33 34
000
FTUS41 KBOX 011121
TAFBAF
TAF
KBAF 011121Z 0112/0212 00000KT 5SM BR BKN008
     FM011300 00000KT P6SM BKN120
     FM011700 20006KT P6SM BKN060
     FM020500 00000KT P6SM BKN100
     FM020900 00000KT 5SM BR OVC110=

USA.gov is the U.S. government's official web portal to all federal, state and local government web resources and services.